Time;durP1;ratioP1;P1;durP2;ratioP2;P2;SDS_P1;SDS_P2;PMS_P1;PMS_P2;Temp;Humidity;BMP_temperature;BMP_pressure;BME280_temperature;BME280_humidity;BME280_pressure;Samples;Min_cycle;Max_cycle;Signal;HPM_P1;HPM_P2
2024/02/19 00:00:38;;;;;;;0.20;0.20;;;;;;;6.49;100.00;93924.28;1890691;28;20174;-80
2024/02/19 00:01:40;;;;;;;0.20;0.20;;;;;;;6.46;100.00;93926.94;1910154;28;20062;-80
2024/02/19 00:02:41;;;;;;;0.15;0.15;;;;;;;6.51;100.00;93910.66;1947565;28;20027;-79
2024/02/19 00:03:42;;;;;;;0.20;0.20;;;;;;;6.51;100.00;93911.41;1958966;28;20032;-81
2024/02/19 00:04:44;;;;;;;0.20;0.20;;;;;;;6.44;100.00;93921.22;1989017;28;20468;-80
2024/02/19 00:05:45;;;;;;;0.20;0.20;;;;;;;6.41;100.00;93927.25;2020085;28;21189;-81
2024/02/19 00:06:46;;;;;;;0.10;0.10;;;;;;;6.26;100.00;93926.38;2034286;28;21937;-82
2024/02/19 00:07:47;;;;;;;1.13;0.20;;;;;;;6.36;100.00;93920.38;2056319;28;20460;-82
2024/02/19 00:08:50;;;;;;;0.20;0.20;;;;;;;6.51;100.00;93927.34;2080842;28;22179;-82
2024/02/19 00:09:51;;;;;;;0.20;0.20;;;;;;;6.42;100.00;93924.25;2084227;28;20126;-80
2024/02/19 00:10:52;;;;;;;0.20;0.20;;;;;;;6.63;100.00;93922.84;2087428;28;20507;-81
2024/02/19 00:11:53;;;;;;;0.20;0.20;;;;;;;6.77;100.00;93923.72;2097106;28;20047;-81
2024/02/19 00:12:54;;;;;;;0.60;0.17;;;;;;;6.61;100.00;93925.13;2108301;28;20468;-80
2024/02/19 00:13:56;;;;;;;0.52;0.20;;;;;;;6.67;100.00;93929.72;2099485;28;20097;-81
2024/02/19 00:14:57;;;;;;;0.20;0.20;;;;;;;6.65;100.00;93924.00;2099906;28;20107;-80
2024/02/19 00:15:59;;;;;;;0.10;0.10;;;;;;;6.65;100.00;93920.59;2091639;28;20081;-82
2024/02/19 00:17:00;;;;;;;0.20;0.20;;;;;;;6.54;100.00;93921.28;2069710;28;20450;-79
2024/02/19 00:18:01;;;;;;;1.08;0.20;;;;;;;6.73;100.00;93927.47;2079893;28;20035;-80
2024/02/19 00:19:02;;;;;;;0.20;0.20;;;;;;;6.91;100.00;93925.69;2037288;28;21718;-80
2024/02/19 00:20:03;;;;;;;0.40;0.40;;;;;;;6.90;100.00;93926.81;2038129;28;22088;-79
2024/02/19 00:21:04;;;;;;;0.40;0.40;;;;;;;6.63;100.00;93920.19;2033981;28;20083;-81
2024/02/19 00:22:07;;;;;;;0.30;0.30;;;;;;;6.86;100.00;93934.00;2045239;28;20085;-80
2024/02/19 00:23:08;;;;;;;0.20;0.20;;;;;;;6.81;100.00;93937.03;2064861;28;20077;-81
2024/02/19 00:24:09;;;;;;;0.10;0.10;;;;;;;6.73;100.00;93930.88;2079973;28;20074;-79
2024/02/19 00:25:10;;;;;;;0.20;0.20;;;;;;;6.81;100.00;93932.47;2097589;28;20032;-80
2024/02/19 00:26:13;;;;;;;0.15;0.15;;;;;;;6.78;100.00;93935.09;2035225;28;20024;-78
2024/02/19 00:27:14;;;;;;;0.20;0.20;;;;;;;6.64;100.00;93942.97;2038031;28;20045;-79
2024/02/19 00:28:15;;;;;;;0.52;0.20;;;;;;;6.64;100.00;93925.16;2050419;28;20031;-81
2024/02/19 00:29:15;;;;;;;0.20;0.20;;;;;;;6.61;100.00;93930.44;2051934;28;20053;-81
2024/02/19 00:30:16;;;;;;;0.10;0.10;;;;;;;6.68;100.00;93922.50;2054136;28;23669;-80
2024/02/19 00:31:17;;;;;;;0.10;0.10;;;;;;;6.78;100.00;93929.78;2043749;28;20062;-80
2024/02/19 00:32:18;;;;;;;0.25;0.25;;;;;;;7.08;100.00;93929.56;2054245;28;20032;-81
2024/02/19 00:33:20;;;;;;;0.20;0.20;;;;;;;7.04;100.00;93928.78;2057207;28;20115;-79
2024/02/19 00:34:21;;;;;;;1.65;0.30;;;;;;;7.09;100.00;93932.97;2074344;28;20028;-84
2024/02/19 00:35:22;;;;;;;1.80;0.20;;;;;;;7.27;100.00;93931.91;2089740;28;20086;-82
2024/02/19 00:36:25;;;;;;;0.28;0.20;;;;;;;7.20;100.00;93934.56;2052918;27;20160;-79
2024/02/19 00:37:26;;;;;;;0.52;0.20;;;;;;;7.10;100.00;93926.53;2056223;27;20046;-79
2024/02/19 00:38:27;;;;;;;0.20;0.20;;;;;;;7.10;100.00;93926.53;2060001;28;20031;-80
2024/02/19 00:39:28;;;;;;;0.10;0.10;;;;;;;7.26;100.00;93933.06;2055671;28;20090;-80
2024/02/19 00:40:29;;;;;;;0.13;0.13;;;;;;;6.98;100.00;93936.34;2054742;28;22086;-80
2024/02/19 00:41:30;;;;;;;0.47;0.40;;;;;;;7.12;100.00;93940.22;2041392;28;20045;-79
2024/02/19 00:42:31;;;;;;;0.90;0.20;;;;;;;7.10;100.00;93929.19;2050197;28;20156;-80
2024/02/19 00:43:32;;;;;;;0.43;0.20;;;;;;;7.03;100.00;93932.56;2062255;28;22218;-80
2024/02/19 00:44:33;;;;;;;0.10;0.10;;;;;;;6.91;100.00;93933.66;2074812;28;20032;-82
2024/02/19 00:45:34;;;;;;;0.28;0.20;;;;;;;6.92;100.00;93927.19;2079712;28;20115;-81
2024/02/19 00:46:34;;;;;;;0.20;0.20;;;;;;;6.80;100.00;93932.81;2082183;28;20070;-79
2024/02/19 00:47:36;;;;;;;1.45;0.20;;;;;;;6.78;100.00;93935.09;2088776;28;20066;-80
2024/02/19 00:48:37;;;;;;;0.10;0.10;;;;;;;6.81;100.00;93929.03;2088532;28;20376;-82
2024/02/19 00:49:38;;;;;;;1.75;0.20;;;;;;;6.80;100.00;93930.94;2091813;28;20028;-81
2024/02/19 00:50:39;;;;;;;0.10;0.10;;;;;;;7.16;100.00;93933.78;2097758;28;20203;-82
2024/02/19 00:51:39;;;;;;;0.20;0.20;;;;;;;7.07;100.00;93928.81;2106407;28;20035;-82
2024/02/19 00:52:40;;;;;;;0.35;0.20;;;;;;;7.05;100.00;93932.94;2098310;28;20029;-82
2024/02/19 00:53:41;;;;;;;1.30;0.20;;;;;;;6.88;100.00;93923.75;2106741;28;20118;-81
2024/02/19 00:54:45;;;;;;;0.20;0.20;;;;;;;6.95;100.00;93931.00;2098270;28;20021;-79
2024/02/19 00:55:46;;;;;;;0.20;0.20;;;;;;;7.04;100.00;93932.19;2098775;28;20383;-80
2024/02/19 00:56:47;;;;;;;0.20;0.20;;;;;;;7.05;100.00;93927.63;2106730;28;20028;-81
2024/02/19 00:57:49;;;;;;;0.20;0.20;;;;;;;6.98;100.00;93931.03;2106639;28;20028;-82
2024/02/19 00:58:50;;;;;;;0.30;0.20;;;;;;;7.17;100.00;93924.66;2098310;28;20074;-81
2024/02/19 00:59:50;;;;;;;0.77;0.20;;;;;;;7.04;100.00;93931.44;2106616;28;20049;-83
2024/02/19 01:00:55;;;;;;;0.22;0.20;;;;;;;7.14;100.00;93928.06;2098194;28;20054;-80
2024/02/19 01:01:57;;;;;;;0.20;0.20;;;;;;;7.26;100.00;93934.94;2082389;28;20096;-81
2024/02/19 01:02:58;;;;;;;0.20;0.20;;;;;;;7.12;100.00;93926.91;2090107;28;20484;-80
2024/02/19 01:03:59;;;;;;;0.20;0.20;;;;;;;6.83;100.00;93924.09;2109982;28;20463;-82
2024/02/19 01:05:00;;;;;;;0.20;0.20;;;;;;;6.90;100.00;93931.38;2114769;28;20034;-84
2024/02/19 01:06:01;;;;;;;0.20;0.20;;;;;;;6.88;100.00;93930.97;2105627;28;20043;-83
2024/02/19 01:07:03;;;;;;;0.35;0.20;;;;;;;6.98;100.00;93931.03;2101366;28;20050;-83
2024/02/19 01:08:04;;;;;;;0.20;0.20;;;;;;;7.02;100.00;93933.69;2110643;28;20016;-80
2024/02/19 01:09:06;;;;;;;0.30;0.30;;;;;;;7.15;100.00;93932.22;2102324;28;20465;-79
2024/02/19 01:10:07;;;;;;;0.30;0.30;;;;;;;7.14;100.00;93932.63;2106491;28;20020;-82
2024/02/19 01:11:10;;;;;;;0.43;0.28;;;;;;;7.14;100.00;93940.59;2111168;28;20379;-84
2024/02/19 01:12:11;;;;;;;0.30;0.22;;;;;;;7.03;100.00;93945.88;2092173;28;20052;-78
2024/02/19 01:13:12;;;;;;;0.57;0.30;;;;;;;7.00;100.00;93935.97;2093673;28;20406;-81
2024/02/19 01:14:13;;;;;;;0.20;0.20;;;;;;;7.06;100.00;93939.78;2099239;28;20477;-81
2024/02/19 01:15:14;;;;;;;0.20;0.20;;;;;;;7.07;100.00;93936.78;2089541;28;20025;-80
2024/02/19 01:16:15;;;;;;;0.68;0.30;;;;;;;7.05;100.00;93931.06;2091206;28;20078;-83
2024/02/19 01:17:16;;;;;;;0.43;0.43;;;;;;;6.96;100.00;93935.19;2103760;28;20016;-82
2024/02/19 01:18:17;;;;;;;0.20;0.20;;;;;;;6.90;100.00;93936.69;2107444;28;20020;-80
2024/02/19 01:19:18;;;;;;;0.30;0.30;;;;;;;6.96;100.00;93935.19;2097898;28;20028;-81
2024/02/19 01:20:20;;;;;;;0.20;0.20;;;;;;;6.87;100.00;93932.88;2097913;28;20027;-84
2024/02/19 01:21:23;;;;;;;1.55;0.22;;;;;;;6.89;100.00;93935.94;2098312;28;20044;-79
2024/02/19 01:22:24;;;;;;;0.25;0.25;;;;;;;6.88;100.00;93937.03;2097817;28;20028;-81
2024/02/19 01:23:25;;;;;;;2.30;0.38;;;;;;;6.78;100.00;93929.78;2098011;28;20570;-78
2024/02/19 01:24:26;;;;;;;0.20;0.20;;;;;;;6.75;100.00;93927.84;2098087;28;20035;-82
2024/02/19 01:25:27;;;;;;;0.30;0.30;;;;;;;6.86;100.00;93923.38;2106230;28;20106;-80
2024/02/19 01:26:30;;;;;;;0.30;0.30;;;;;;;6.91;100.00;93924.91;2106039;28;20046;-81
2024/02/19 01:27:31;;;;;;;0.30;0.30;;;;;;;6.80;100.00;93928.28;2097980;28;20029;-79
2024/02/19 01:28:32;;;;;;;0.28;0.28;;;;;;;6.91;100.00;93925.69;2097987;28;20016;-83
2024/02/19 01:29:34;;;;;;;0.93;0.28;;;;;;;7.21;100.00;93930.00;2097818;28;20036;-81
2024/02/19 01:30:37;;;;;;;0.20;0.20;;;;;;;7.17;100.00;93934.53;2098046;28;20427;-81
2024/02/19 01:31:38;;;;;;;0.22;0.20;;;;;;;7.20;100.00;93934.56;2106326;28;20051;-79
2024/02/19 01:32:39;;;;;;;0.20;0.20;;;;;;;7.31;100.00;93930.03;2106327;28;20061;-81
2024/02/19 01:33:40;;;;;;;0.25;0.25;;;;;;;7.19;100.00;93932.25;2106076;28;20040;-82
2024/02/19 01:34:41;;;;;;;0.20;0.20;;;;;;;7.20;100.00;93936.44;2106249;28;20453;-82
2024/02/19 01:35:45;;;;;;;0.20;0.20;;;;;;;7.17;100.00;93935.28;2097361;28;20042;-79
2024/02/19 01:36:46;;;;;;;0.52;0.20;;;;;;;7.13;100.00;93941.72;2099409;28;20082;-79
2024/02/19 01:37:47;;;;;;;0.80;0.70;;;;;;;7.17;100.00;93940.63;2099413;28;20024;-80
2024/02/19 01:38:48;;;;;;;0.20;0.20;;;;;;;7.15;100.00;93932.22;2100181;28;20098;-81
2024/02/19 01:39:49;;;;;;;0.30;0.30;;;;;;;7.08;100.00;93937.53;2102967;28;20035;-82
2024/02/19 01:40:50;;;;;;;0.25;0.25;;;;;;;6.96;100.00;93930.63;2098250;28;20548;-81
2024/02/19 01:41:51;;;;;;;0.20;0.20;;;;;;;6.99;100.00;93937.13;2103835;28;20404;-81
2024/02/19 01:43:05;;;;;;;1.65;0.20;;;;;;;6.98;100.00;93935.56;2100179;28;20028;-81
2024/02/19 01:44:08;;;;;;;0.35;0.20;;;;;;;7.01;100.00;93938.25;2097722;28;20134;-82
2024/02/19 01:45:35;;;;;;;0.28;0.28;;;;;;;6.94;100.00;93940.88;2090132;28;20039;-80
2024/02/19 01:46:39;;;;;;;0.20;0.20;;;;;;;6.99;100.00;93947.75;2096917;28;20044;-82
2024/02/19 01:47:40;;;;;;;0.20;0.20;;;;;;;7.04;100.00;93942.81;2090769;28;20059;-82
2024/02/19 01:48:41;;;;;;;0.47;0.30;;;;;;;6.95;100.00;93945.06;2101223;28;20024;-82
2024/02/19 01:49:43;;;;;;;0.22;0.20;;;;;;;6.87;100.00;93940.84;2110126;28;20026;-79
2024/02/19 01:50:46;;;;;;;0.30;0.30;;;;;;;6.98;100.00;93943.53;2098607;28;20055;-79
2024/02/19 01:51:48;;;;;;;0.20;0.20;;;;;;;6.87;100.00;93932.88;2106340;28;20068;-80
2024/02/19 01:52:53;;;;;;;0.20;0.20;;;;;;;6.91;100.00;93938.19;2105938;28;20024;-81
2024/02/19 01:53:55;;;;;;;0.32;0.30;;;;;;;6.94;100.00;93940.88;2098289;28;20059;-81
2024/02/19 01:54:56;;;;;;;0.25;0.25;;;;;;;6.87;100.00;93940.84;2106220;28;20031;-79
2024/02/19 01:55:57;;;;;;;1.27;0.82;;;;;;;7.14;100.00;93935.28;2097704;28;20039;-81
2024/02/19 01:56:58;;;;;;;0.20;0.20;;;;;;;7.11;100.00;93938.66;2097895;28;20039;-81
2024/02/19 01:57:59;;;;;;;0.20;0.20;;;;;;;7.25;100.00;93941.41;2097827;28;20485;-80
2024/02/19 01:59:02;;;;;;;0.20;0.20;;;;;;;7.18;100.00;93941.38;2089571;28;20415;-82
2024/02/19 02:00:10;;;;;;;0.20;0.20;;;;;;;7.11;100.00;93933.34;2098331;28;20752;-81
2024/02/19 02:01:13;;;;;;;0.20;0.20;;;;;;;7.11;100.00;93936.78;2105953;28;20106;-82
2024/02/19 02:02:17;;;;;;;0.20;0.20;;;;;;;7.11;100.00;93938.66;2106655;28;20421;-82
2024/02/19 02:03:21;;;;;;;0.10;0.10;;;;;;;7.15;100.00;93939.44;2114232;28;20027;-80
2024/02/19 02:04:23;;;;;;;0.30;0.30;;;;;;;7.02;100.00;93941.66;2097587;28;20070;-82
2024/02/19 02:05:24;;;;;;;0.20;0.20;;;;;;;7.11;100.00;93938.66;2089882;28;20643;-81
2024/02/19 02:06:26;;;;;;;0.22;0.20;;;;;;;7.21;100.00;93937.97;2089104;28;20056;-80
2024/02/19 02:07:28;;;;;;;0.20;0.20;;;;;;;7.10;100.00;93943.22;2089430;28;20131;-80
2024/02/19 02:08:29;;;;;;;0.20;0.20;;;;;;;7.25;100.00;93933.44;2105074;28;20035;-81
2024/02/19 02:09:30;;;;;;;0.20;0.20;;;;;;;7.35;100.00;93940.69;2106092;28;20016;-81
2024/02/19 02:10:31;;;;;;;1.08;0.32;;;;;;;7.28;100.00;93935.31;2105890;28;20035;-81
2024/02/19 02:11:32;;;;;;;0.20;0.20;;;;;;;7.26;100.00;93930.41;2097778;28;20024;-81
2024/02/19 02:12:33;;;;;;;0.20;0.20;;;;;;;7.29;100.00;93934.22;2106038;28;20023;-80
2024/02/19 02:13:35;;;;;;;0.22;0.20;;;;;;;7.23;100.00;93943.66;2105844;28;20051;-81
2024/02/19 02:14:36;;;;;;;0.32;0.32;;;;;;;7.09;100.00;93928.41;2097929;28;20024;-80
2024/02/19 02:15:37;;;;;;;0.55;0.40;;;;;;;7.30;100.00;93941.81;2105836;28;20111;-82
2024/02/19 02:16:38;;;;;;;0.30;0.30;;;;;;;7.25;100.00;93939.50;2106622;28;20445;-83
2024/02/19 02:17:43;;;;;;;0.30;0.30;;;;;;;7.11;100.00;93933.34;2099747;28;20020;-81
2024/02/19 02:18:44;;;;;;;1.65;0.32;;;;;;;7.22;100.00;93942.91;2106523;28;20024;-85
2024/02/19 02:19:45;;;;;;;0.43;0.30;;;;;;;7.33;100.00;93940.28;2097048;28;20544;-83
2024/02/19 02:20:46;;;;;;;0.30;0.30;;;;;;;7.35;100.00;93939.94;2087783;28;20037;-82
2024/02/19 02:21:47;;;;;;;0.40;0.40;;;;;;;7.28;100.00;93938.00;2097591;28;20124;-80
2024/02/19 02:22:48;;;;;;;0.50;0.40;;;;;;;7.23;100.00;93933.78;2097481;28;20461;-81
2024/02/19 02:23:49;;;;;;;0.32;0.32;;;;;;;7.43;100.00;93936.16;2089303;28;20051;-79
2024/02/19 02:26:39;;;;;;;;;;;;;;;6.33;100.00;93923.81;2148352;27;20105;-81
2024/02/19 02:27:40;;;;;;;0.95;0.50;;;;;;;6.17;100.00;93925.94;2128943;27;20006;-81
2024/02/19 02:28:44;;;;;;;0.43;0.43;;;;;;;6.19;100.00;93926.31;2113813;27;20023;-84
2024/02/19 02:29:45;;;;;;;0.40;0.40;;;;;;;6.23;100.00;93921.81;2136517;27;20042;-83
2024/02/19 02:30:46;;;;;;;0.40;0.40;;;;;;;6.31;100.00;93929.47;2114828;27;20349;-85
2024/02/19 02:31:47;;;;;;;0.30;0.30;;;;;;;6.52;100.00;93926.19;2119623;28;20408;-84
2024/02/19 02:32:48;;;;;;;0.40;0.40;;;;;;;6.41;100.00;93921.94;2114889;27;20093;-84
2024/02/19 02:33:49;;;;;;;0.40;0.40;;;;;;;6.45;100.00;93928.81;2125506;27;20128;-82
2024/02/19 02:34:50;;;;;;;0.75;0.47;;;;;;;6.29;100.00;93920.34;2119182;28;20031;-83
2024/02/19 02:35:51;;;;;;;0.60;0.60;;;;;;;6.44;100.00;93931.84;2103557;28;20560;-83
2024/02/19 02:37:03;;;;;;;0.93;0.50;;;;;;;6.57;100.00;93923.19;2106859;28;20111;-84
2024/02/19 02:38:04;;;;;;;0.77;0.68;;;;;;;6.55;100.00;93930.03;2117886;27;20036;-84
2024/02/19 02:39:04;;;;;;;0.82;0.70;;;;;;;6.62;100.00;93922.09;2108579;28;20020;-84
2024/02/19 02:40:06;;;;;;;2.05;0.90;;;;;;;6.57;100.00;93922.44;2088139;28;20552;-84
2024/02/19 02:41:08;;;;;;;0.70;0.70;;;;;;;6.49;100.00;93926.94;2109683;28;20036;-83
2024/02/19 02:42:09;;;;;;;1.45;0.73;;;;;;;6.55;100.00;93922.81;2110720;28;20085;-83
2024/02/19 02:43:10;;;;;;;1.45;0.93;;;;;;;6.39;100.00;93922.31;2100575;28;20078;-84
2024/02/19 02:44:11;;;;;;;0.98;0.80;;;;;;;6.26;100.00;93919.19;2106508;28;20043;-85
2024/02/19 02:45:12;;;;;;;0.70;0.70;;;;;;;6.36;100.00;93924.94;2112771;28;20026;-84
2024/02/19 02:46:13;;;;;;;0.70;0.70;;;;;;;6.52;100.00;93922.78;2106843;28;20032;-84
2024/02/19 02:47:14;;;;;;;3.65;0.90;;;;;;;6.71;100.00;93919.09;2117482;28;20030;-83
2024/02/19 02:48:15;;;;;;;0.80;0.80;;;;;;;6.64;100.00;93924.38;2108705;28;20023;-83
2024/02/19 02:49:16;;;;;;;2.05;0.90;;;;;;;6.52;100.00;93915.56;2111755;28;20451;-83
2024/02/19 02:50:17;;;;;;;0.80;0.80;;;;;;;6.60;100.00;93923.59;2109238;28;20338;-83
2024/02/19 02:51:19;;;;;;;0.70;0.50;;;;;;;6.63;100.00;93923.63;2116416;27;20023;-84
2024/02/19 02:52:20;;;;;;;1.95;0.70;;;;;;;6.50;100.00;93925.06;2114674;28;20057;-84
2024/02/19 02:53:22;;;;;;;1.10;0.73;;;;;;;6.67;100.00;93928.94;2102497;28;20052;-84
2024/02/19 02:54:23;;;;;;;1.38;0.70;;;;;;;6.73;100.00;93928.22;2108602;27;20024;-84
2024/02/19 02:55:23;;;;;;;0.93;0.70;;;;;;;6.71;100.00;93929.72;2114325;28;20381;-83
2024/02/19 02:56:24;;;;;;;0.85;0.77;;;;;;;6.68;100.00;93923.28;2104358;28;20026;-83
2024/02/19 02:57:26;;;;;;;0.88;0.77;;;;;;;6.70;100.00;93925.56;2104473;28;20031;-84
2024/02/19 02:58:26;;;;;;;1.50;0.90;;;;;;;6.70;100.00;93923.66;2096092;28;20040;-84
2024/02/19 02:59:27;;;;;;;1.58;0.93;;;;;;;6.81;100.00;93923.72;2095998;28;20020;-84
2024/02/19 03:00:28;;;;;;;0.90;0.90;;;;;;;6.70;100.00;93928.97;2096040;28;20025;-84
2024/02/19 03:01:30;;;;;;;2.28;1.10;;;;;;;6.61;100.00;93935.75;2095882;28;20024;-83
2024/02/19 03:02:32;;;;;;;2.67;1.17;;;;;;;6.57;100.00;93923.19;2104275;28;20108;-83
2024/02/19 03:03:33;;;;;;;1.25;1.15;;;;;;;6.64;100.00;93927.03;2104475;28;20028;-84
2024/02/19 03:04:34;;;;;;;2.55;1.30;;;;;;;6.41;100.00;93912.09;2095931;28;20056;-83
2024/02/19 03:05:37;;;;;;;1.45;1.27;;;;;;;6.55;100.00;93916.75;2111357;28;20027;-81
2024/02/19 03:06:38;;;;;;;3.22;1.30;;;;;;;6.51;100.00;93930.00;2102596;28;20123;-85
2024/02/19 03:07:39;;;;;;;1.27;1.15;;;;;;;6.66;100.00;93924.75;2103521;28;20024;-83
2024/02/19 03:08:40;;;;;;;1.23;1.13;;;;;;;6.56;100.00;93924.34;2099292;28;20077;-84
2024/02/19 03:09:41;;;;;;;3.55;1.35;;;;;;;6.59;100.00;93922.84;2090435;28;20036;-84
2024/02/19 03:10:43;;;;;;;1.40;1.30;;;;;;;6.44;100.00;93926.53;2102930;28;20489;-84
2024/02/19 03:11:44;;;;;;;1.63;1.52;;;;;;;6.45;100.00;93920.06;2107250;27;20164;-84
2024/02/19 03:12:44;;;;;;;1.48;1.17;;;;;;;6.39;100.00;93930.28;2119219;28;20024;-82
2024/02/19 03:13:46;;;;;;;1.83;1.40;;;;;;;6.40;100.00;93929.16;2107596;27;20032;-82
2024/02/19 03:14:47;;;;;;;1.42;1.33;;;;;;;6.43;100.00;93936.38;2106313;28;20126;-81
2024/02/19 03:15:49;;;;;;;1.63;1.10;;;;;;;6.43;100.00;93922.34;2109569;27;20020;-85
2024/02/19 03:16:50;;;;;;;1.25;1.15;;;;;;;6.67;100.00;93924.41;2107343;28;20103;-84
2024/02/19 03:17:51;;;;;;;1.27;1.15;;;;;;;6.55;100.00;93920.16;2099884;28;20471;-84
2024/02/19 03:18:53;;;;;;;3.28;1.30;;;;;;;6.55;100.00;93927.38;2107786;28;20337;-83
2024/02/19 03:19:54;;;;;;;1.02;1.00;;;;;;;6.48;100.00;93928.06;2102971;28;20033;-84
2024/02/19 03:20:56;;;;;;;3.25;1.30;;;;;;;6.45;100.00;93936.00;2095846;28;20028;-83
2024/02/19 03:21:57;;;;;;;1.60;1.25;;;;;;;6.49;100.00;93936.78;2104423;28;20039;-84
2024/02/19 03:22:58;;;;;;;1.00;1.00;;;;;;;6.52;100.00;93938.72;2112631;28;20485;-83
2024/02/19 03:24:00;;;;;;;2.28;1.33;;;;;;;6.56;100.00;93934.19;2115909;28;20042;-84
2024/02/19 03:25:01;;;;;;;1.67;1.20;;;;;;;6.60;100.00;93934.22;2109028;28;20031;-83
2024/02/19 03:26:04;;;;;;;1.15;1.05;;;;;;;6.67;100.00;93931.59;2120626;27;20031;-83
2024/02/19 03:27:06;;;;;;;1.20;1.10;;;;;;;6.57;100.00;93935.72;2124953;27;20026;-84
2024/02/19 03:28:07;;;;;;;1.50;1.10;;;;;;;6.65;100.00;93931.22;2108713;28;20115;-85
2024/02/19 03:29:12;;;;;;;1.50;1.40;;;;;;;6.75;100.00;93938.47;2099354;28;20064;-81
2024/02/19 03:30:13;;;;;;;1.50;1.27;;;;;;;6.73;100.00;93933.53;2108015;27;20024;-83
2024/02/19 03:31:14;;;;;;;1.70;1.30;;;;;;;6.54;100.00;93934.56;2115323;28;20016;-83
2024/02/19 03:32:15;;;;;;;3.35;1.40;;;;;;;6.64;100.00;93925.16;2126735;27;20023;-83
2024/02/19 03:33:16;;;;;;;1.67;1.40;;;;;;;6.69;100.00;93932.75;2106400;28;20138;-82
2024/02/19 03:34:17;;;;;;;1.52;1.30;;;;;;;6.73;100.00;93928.22;2103951;28;20043;-82
2024/02/19 03:35:18;;;;;;;1.90;1.30;;;;;;;6.53;100.00;93934.94;2106011;28;20031;-81
2024/02/19 03:36:19;;;;;;;1.30;1.20;;;;;;;6.69;100.00;93935.41;2105074;28;20047;-81
2024/02/19 03:37:21;;;;;;;2.25;1.02;;;;;;;6.68;100.00;93925.16;2104614;28;20420;-81
2024/02/19 03:38:22;;;;;;;1.25;1.15;;;;;;;6.74;100.00;93942.28;2098707;28;20025;-82
2024/02/19 03:39:23;;;;;;;1.27;1.17;;;;;;;6.64;100.00;93932.34;2100105;28;20535;-82
2024/02/19 03:40:24;;;;;;;1.25;0.85;;;;;;;6.53;100.00;93940.25;2098580;28;20023;-81
2024/02/19 03:41:25;;;;;;;1.58;1.00;;;;;;;6.56;100.00;93934.94;2095579;28;20024;-82
2024/02/19 03:42:26;;;;;;;2.55;1.13;;;;;;;6.55;100.00;93933.44;2098306;28;20035;-81
2024/02/19 03:43:27;;;;;;;1.60;1.17;;;;;;;6.54;100.00;93944.41;2106721;28;20048;-85
2024/02/19 03:44:28;;;;;;;1.20;0.85;;;;;;;6.45;100.00;93942.09;2099260;28;20024;-82
2024/02/19 03:45:28;;;;;;;1.45;0.90;;;;;;;6.56;100.00;93942.94;2112630;28;20030;-82
2024/02/19 03:46:36;;;;;;;0.88;0.57;;;;;;;6.68;100.00;93949.09;2111723;28;20461;-81
2024/02/19 03:47:37;;;;;;;0.70;0.70;;;;;;;6.51;100.00;93951.25;2092521;28;20558;-83
2024/02/19 03:48:38;;;;;;;0.85;0.85;;;;;;;6.48;100.00;93948.56;2103533;28;20033;-82
2024/02/19 03:49:39;;;;;;;0.70;0.70;;;;;;;6.43;100.00;93951.56;2115119;28;20054;-83
2024/02/19 03:50:40;;;;;;;1.95;0.60;;;;;;;6.52;100.00;93947.44;2099048;28;20032;-85
2024/02/19 03:51:41;;;;;;;0.65;0.52;;;;;;;6.50;100.00;93952.38;2114973;28;20050;-83
2024/02/19 03:52:42;;;;;;;1.27;0.80;;;;;;;6.44;100.00;93948.53;2106680;28;20413;-84
2024/02/19 03:53:44;;;;;;;0.95;0.50;;;;;;;6.55;100.00;93956.59;2114919;28;20084;-84
2024/02/19 03:54:45;;;;;;;0.40;0.40;;;;;;;6.65;100.00;93958.53;2125605;27;20185;-85
2024/02/19 03:55:46;;;;;;;1.02;0.30;;;;;;;6.60;100.00;93950.91;2115194;28;20019;-84
2024/02/19 03:56:51;;;;;;;1.42;0.40;;;;;;;6.53;100.00;93951.63;2105070;28;20084;-83
2024/02/19 03:57:51;;;;;;;1.05;0.40;;;;;;;6.48;100.00;93956.53;2098679;28;20377;-85
2024/02/19 03:58:52;;;;;;;1.27;0.38;;;;;;;6.52;100.00;93954.66;2089968;28;20091;-84
2024/02/19 03:59:53;;;;;;;0.32;0.32;;;;;;;6.53;100.00;93962.25;2106764;28;20077;-85
2024/02/19 04:00:54;;;;;;;0.30;0.30;;;;;;;6.61;100.00;93955.09;2101155;28;21975;-83
2024/02/19 04:01:55;;;;;;;0.40;0.40;;;;;;;6.60;100.00;93958.88;2106750;28;20036;-81
2024/02/19 04:02:56;;;;;;;0.30;0.30;;;;;;;6.61;100.00;93949.78;2103421;28;20021;-82
2024/02/19 04:03:57;;;;;;;0.35;0.25;;;;;;;6.63;100.00;93958.16;2096194;28;20036;-83
2024/02/19 04:04:58;;;;;;;0.32;0.30;;;;;;;6.51;100.00;93945.94;2103210;28;20054;-83
2024/02/19 04:05:59;;;;;;;0.30;0.30;;;;;;;6.45;100.00;93949.28;2098568;28;20122;-83
2024/02/19 04:07:00;;;;;;;0.65;0.30;;;;;;;6.46;100.00;93948.94;2098021;28;20047;-83
2024/02/19 04:08:01;;;;;;;0.65;0.30;;;;;;;6.42;100.00;93950.78;2100438;28;20161;-84
2024/02/19 04:09:02;;;;;;;0.40;0.30;;;;;;;6.42;100.00;93955.34;2102782;28;20024;-83
2024/02/19 04:10:04;;;;;;;0.30;0.30;;;;;;;6.53;100.00;93950.88;2094171;28;20473;-84
2024/02/19 04:11:05;;;;;;;0.40;0.40;;;;;;;6.57;100.00;93949.00;2091272;28;20037;-83
2024/02/19 04:12:07;;;;;;;0.75;0.40;;;;;;;6.38;100.00;93946.59;2106966;27;20042;-84
2024/02/19 04:13:08;;;;;;;0.82;0.20;;;;;;;6.36;100.00;93943.53;2111635;28;20019;-84
2024/02/19 04:14:10;;;;;;;2.60;0.30;;;;;;;6.36;100.00;93954.16;2098166;28;20024;-84
2024/02/19 04:15:11;;;;;;;0.30;0.30;;;;;;;6.39;100.00;93948.09;2109318;28;20030;-84
2024/02/19 04:16:12;;;;;;;0.70;0.40;;;;;;;6.59;100.00;93946.75;2106418;28;20012;-83
2024/02/19 04:17:13;;;;;;;2.45;0.50;;;;;;;6.57;100.00;93949.75;2100915;28;20051;-84
2024/02/19 04:18:13;;;;;;;0.30;0.30;;;;;;;6.56;100.00;93952.78;2105272;28;20058;-83
2024/02/19 04:19:16;;;;;;;0.43;0.40;;;;;;;6.62;100.00;93945.22;2106297;28;20024;-83
2024/02/19 04:20:18;;;;;;;1.00;0.60;;;;;;;6.51;100.00;93955.78;2098258;28;20029;-85
2024/02/19 04:21:18;;;;;;;1.42;0.40;;;;;;;6.73;100.00;93948.72;2110379;28;20020;-84
2024/02/19 04:22:19;;;;;;;0.40;0.40;;;;;;;6.65;100.00;93955.13;2100094;28;20016;-83
2024/02/19 04:23:20;;;;;;;1.65;0.40;;;;;;;6.57;100.00;93954.31;2106439;28;20043;-83
2024/02/19 04:24:21;;;;;;;0.65;0.50;;;;;;;6.52;100.00;93957.31;2099930;28;20418;-84
2024/02/19 04:25:23;;;;;;;0.50;0.50;;;;;;;6.40;100.00;93954.94;2111434;28;20027;-85
2024/02/19 04:26:24;;;;;;;0.43;0.40;;;;;;;6.43;100.00;93960.28;2099477;28;20124;-83
2024/02/19 04:27:25;;;;;;;0.40;0.40;;;;;;;6.33;100.00;93953.00;2105174;28;20020;-84
2024/02/19 04:28:26;;;;;;;0.38;0.38;;;;;;;6.37;100.00;93958.34;2099190;28;20076;-84
2024/02/19 04:29:27;;;;;;;0.40;0.40;;;;;;;6.40;100.00;93952.28;2106378;28;20422;-83
2024/02/19 04:30:28;;;;;;;6.13;0.50;;;;;;;6.38;100.00;93957.22;2114644;28;20031;-84
2024/02/19 04:31:29;;;;;;;1.17;0.40;;;;;;;6.30;100.00;93954.50;2105579;28;20115;-84
2024/02/19 04:32:29;;;;;;;1.08;0.43;;;;;;;6.40;100.00;93954.94;2106884;28;20050;-84
2024/02/19 04:33:31;;;;;;;0.32;0.32;;;;;;;6.63;100.00;93954.72;2122119;27;20515;-84
2024/02/19 04:34:32;;;;;;;0.40;0.40;;;;;;;6.50;100.00;93955.03;2110935;28;20020;-84
2024/02/19 04:35:33;;;;;;;1.23;0.30;;;;;;;6.40;100.00;93950.38;2105791;28;20027;-84
2024/02/19 04:36:34;;;;;;;0.30;0.30;;;;;;;6.51;100.00;93955.78;2089641;28;20107;-83
2024/02/19 04:37:35;;;;;;;0.30;0.30;;;;;;;6.37;100.00;93955.69;2089774;28;20440;-83
2024/02/19 04:38:36;;;;;;;0.30;0.30;;;;;;;6.35;100.00;93964.00;2095753;28;20048;-84
2024/02/19 04:39:37;;;;;;;0.32;0.32;;;;;;;6.26;100.00;93956.34;2099271;28;20465;-84
2024/02/19 04:40:38;;;;;;;0.30;0.30;;;;;;;6.38;100.00;93963.28;2089450;28;20024;-84
2024/02/19 04:41:39;;;;;;;0.30;0.30;;;;;;;6.24;100.00;93957.88;2097829;28;20024;-83
2024/02/19 04:42:40;;;;;;;0.98;0.38;;;;;;;6.14;100.00;93961.16;2105448;28;20020;-84
2024/02/19 04:43:41;;;;;;;2.40;0.40;;;;;;;6.17;100.00;93955.91;2115660;27;20110;-84
2024/02/19 04:44:42;;;;;;;2.40;0.65;;;;;;;6.31;100.00;93963.22;2109257;28;20037;-83
2024/02/19 04:45:43;;;;;;;0.40;0.40;;;;;;;6.35;100.00;93963.25;2107499;28;20059;-84
2024/02/19 04:46:44;;;;;;;1.75;0.50;;;;;;;6.37;100.00;93953.03;2101273;28;20040;-84
2024/02/19 04:47:45;;;;;;;1.05;0.50;;;;;;;6.48;100.00;93956.53;2114597;27;20094;-84
2024/02/19 04:48:46;;;;;;;0.47;0.47;;;;;;;6.50;100.00;93963.00;2113472;28;20047;-84
2024/02/19 04:49:47;;;;;;;0.75;0.52;;;;;;;6.28;100.00;93959.41;2101054;28;20020;-83
2024/02/19 04:50:48;;;;;;;1.25;0.90;;;;;;;6.35;100.00;93956.03;2099763;28;20115;-83
2024/02/19 04:51:49;;;;;;;1.63;0.70;;;;;;;6.49;100.00;93960.69;2112468;28;20128;-84